BAW27 EGKK-EGCC
Flight info
| Callsign | BAW27 |
|---|---|
| Flight time | N/A |
| Altitude | 24000 |
| Route | LAM N57 WELIN DCT TIMPO DCT ELVOS DCT TNT |
| Aircraft | A359/H-SDE2E3GHIJ3J4J5LM1ORWXY/LB1D1 |
Departure
| Time | 2026-05-06 10:10 |
|---|---|
| Airport | London Gatwick Airport (EGKK) |
Arrival
| Time | N/A |
|---|---|
| Airport | Manchester Airport (EGCC) |
| Time | Latitude | Longitude | Altitude | Speed | Heading |
|---|---|---|---|---|---|
| 2026-05-06 09:24 | 51.15449 | -0.17080 | 217 ft | 0 kts | 348° |
| 2026-05-06 09:50 | 51.15441 | -0.17077 | 216 ft | 1 kts | 5° |
| 2026-05-06 09:51 | 51.15425 | -0.17077 | 213 ft | 3 kts | 337° |
| 2026-05-06 09:51 | 51.15409 | -0.17059 | 223 ft | 3 kts | 295° |
| 2026-05-06 09:51 | 51.15406 | -0.17051 | 222 ft | 0 kts | 282° |
| 2026-05-06 10:01 | 51.15404 | -0.17114 | 213 ft | 1 kts | 256° |
| 2026-05-06 10:01 | 51.15399 | -0.17145 | 218 ft | 8 kts | 256° |
| 2026-05-06 10:02 | 51.15379 | -0.17247 | 221 ft | 4 kts | 249° |
| 2026-05-06 10:02 | 51.15372 | -0.17278 | 222 ft | 2 kts | 249° |
| 2026-05-06 10:02 | 51.15334 | -0.17361 | 222 ft | 17 kts | 227° |
| 2026-05-06 10:02 | 51.15288 | -0.17543 | 218 ft | 19 kts | 257° |
| 2026-05-06 10:03 | 51.15258 | -0.17762 | 222 ft | 22 kts | 257° |
| 2026-05-06 10:03 | 51.15223 | -0.18018 | 218 ft | 26 kts | 258° |
| 2026-05-06 10:03 | 51.15183 | -0.18310 | 220 ft | 29 kts | 258° |
| 2026-05-06 10:03 | 51.15144 | -0.18621 | 219 ft | 27 kts | 258° |
| 2026-05-06 10:04 | 51.15102 | -0.18926 | 218 ft | 29 kts | 258° |
| 2026-05-06 10:04 | 51.15095 | -0.18980 | 222 ft | 1 kts | 257° |
| 2026-05-06 10:04 | 51.15092 | -0.19003 | 215 ft | 4 kts | 257° |
| 2026-05-06 10:04 | 51.15077 | -0.19106 | 214 ft | 16 kts | 257° |
| 2026-05-06 10:05 | 51.15045 | -0.19341 | 219 ft | 25 kts | 258° |
| 2026-05-06 10:05 | 51.15007 | -0.19630 | 216 ft | 28 kts | 257° |
| 2026-05-06 10:05 | 51.14962 | -0.19954 | 214 ft | 31 kts | 257° |
| 2026-05-06 10:05 | 51.14915 | -0.20306 | 214 ft | 34 kts | 258° |
| 2026-05-06 10:06 | 51.14862 | -0.20682 | 214 ft | 36 kts | 257° |
| 2026-05-06 10:06 | 51.14824 | -0.20963 | 218 ft | 24 kts | 258° |
| 2026-05-06 10:06 | 51.14781 | -0.21218 | 211 ft | 23 kts | 256° |
| 2026-05-06 10:06 | 51.14759 | -0.21351 | 211 ft | 6 kts | 243° |
| 2026-05-06 10:07 | 51.14719 | -0.21379 | 217 ft | 8 kts | 180° |
| 2026-05-06 10:07 | 51.14662 | -0.21355 | 216 ft | 0 kts | 160° |
| 2026-05-06 10:07 | 51.14661 | -0.21354 | 216 ft | 2 kts | 159° |
| 2026-05-06 10:08 | 51.14638 | -0.21341 | 217 ft | 5 kts | 160° |
| 2026-05-06 10:08 | 51.14635 | -0.21339 | 216 ft | 0 kts | 160° |
| 2026-05-06 10:08 | 51.14626 | -0.21334 | 214 ft | 10 kts | 160° |
| 2026-05-06 10:08 | 51.14535 | -0.21231 | 220 ft | 18 kts | 121° |
| 2026-05-06 10:09 | 51.14526 | -0.21092 | 220 ft | 0 kts | 81° |
| 2026-05-06 10:09 | 51.14570 | -0.20760 | 217 ft | 81 kts | 77° |
| 2026-05-06 10:09 | 51.14693 | -0.19891 | 217 ft | 138 kts | 77° |
| 2026-05-06 10:10 | 51.14891 | -0.18479 | 569 ft | 161 kts | 77° |
| 2026-05-06 10:10 | 51.15142 | -0.16715 | 1425 ft | 167 kts | 77° |
| 2026-05-06 10:10 | 51.15389 | -0.14940 | 1884 ft | 201 kts | 77° |
| 2026-05-06 10:10 | 51.15448 | -0.14509 | 1985 ft | 208 kts | 78° |
| 2026-05-06 10:11 | 51.15572 | -0.13600 | 2138 ft | 220 kts | 77° |
| 2026-05-06 10:11 | 51.15916 | -0.11076 | 2508 ft | 245 kts | 78° |
| 2026-05-06 10:11 | 51.16296 | -0.08351 | 3128 ft | 257 kts | 76° |
| 2026-05-06 10:11 | 51.17038 | -0.05744 | 3912 ft | 262 kts | 57° |
| 2026-05-06 10:12 | 51.18117 | -0.03380 | 4586 ft | 265 kts | 52° |
| 2026-05-06 10:12 | 51.19260 | -0.01057 | 4932 ft | 267 kts | 51° |
| 2026-05-06 10:12 | 51.20415 | 0.01275 | 5001 ft | 269 kts | 51° |
| 2026-05-06 10:12 | 51.21569 | 0.03628 | 5004 ft | 270 kts | 52° |
| 2026-05-06 10:13 | 51.22707 | 0.05962 | 4998 ft | 270 kts | 52° |
| 2026-05-06 10:13 | 51.23857 | 0.08335 | 4999 ft | 270 kts | 52° |
| 2026-05-06 10:13 | 51.24865 | 0.10863 | 4995 ft | 271 kts | 66° |
| 2026-05-06 10:13 | 51.25398 | 0.13742 | 5002 ft | 271 kts | 77° |
| 2026-05-06 10:14 | 51.25758 | 0.16698 | 4999 ft | 271 kts | 79° |
| 2026-05-06 10:14 | 51.26092 | 0.19657 | 5001 ft | 271 kts | 79° |
| 2026-05-06 10:14 | 51.26433 | 0.22619 | 4999 ft | 271 kts | 79° |
| 2026-05-06 10:14 | 51.26773 | 0.25577 | 5003 ft | 271 kts | 79° |
| 2026-05-06 10:15 | 51.27117 | 0.28534 | 4999 ft | 271 kts | 79° |
| 2026-05-06 10:15 | 51.27503 | 0.31482 | 4999 ft | 271 kts | 74° |
| 2026-05-06 10:15 | 51.28357 | 0.34141 | 4999 ft | 271 kts | 50° |
| 2026-05-06 10:15 | 51.29855 | 0.35902 | 4995 ft | 269 kts | 22° |
| 2026-05-06 10:16 | 51.31690 | 0.36352 | 4998 ft | 269 kts | 354° |
| 2026-05-06 10:16 | 51.33489 | 0.35600 | 4996 ft | 268 kts | 339° |
| 2026-05-06 10:16 | 51.35213 | 0.34477 | 5108 ft | 264 kts | 336° |
| 2026-05-06 10:16 | 51.36910 | 0.33312 | 5736 ft | 268 kts | 336° |
| 2026-05-06 10:17 | 51.38634 | 0.32154 | 5985 ft | 270 kts | 337° |
| 2026-05-06 10:17 | 51.40375 | 0.31004 | 5874 ft | 272 kts | 337° |
| 2026-05-06 10:17 | 51.42118 | 0.29862 | 5663 ft | 269 kts | 338° |
| 2026-05-06 10:17 | 51.43848 | 0.28738 | 5838 ft | 270 kts | 337° |
| 2026-05-06 10:18 | 51.45597 | 0.27598 | 5985 ft | 271 kts | 337° |
| 2026-05-06 10:18 | 51.47343 | 0.26462 | 6001 ft | 271 kts | 338° |
| 2026-05-06 10:18 | 51.49095 | 0.25340 | 6001 ft | 271 kts | 338° |
| 2026-05-06 10:18 | 51.50847 | 0.24201 | 6001 ft | 272 kts | 337° |
| 2026-05-06 10:19 | 51.52596 | 0.23052 | 6001 ft | 272 kts | 337° |
| 2026-05-06 10:19 | 51.54346 | 0.21901 | 5999 ft | 272 kts | 337° |
| 2026-05-06 10:19 | 51.56098 | 0.20751 | 6000 ft | 272 kts | 337° |
| 2026-05-06 10:19 | 51.57848 | 0.19604 | 6002 ft | 272 kts | 337° |
| 2026-05-06 10:20 | 51.59583 | 0.18464 | 6001 ft | 272 kts | 337° |
| 2026-05-06 10:20 | 51.61364 | 0.17291 | 5996 ft | 294 kts | 336° |